Time;durP1;ratioP1;P1;durP2;ratioP2;P2;SDS_P1;SDS_P2;PMS_P1;PMS_P2;Temp;Humidity;BMP_temperature;BMP_pressure;BME280_temperature;BME280_humidity;BME280_pressure;Samples;Min_cycle;Max_cycle;Signal;HPM_P1;HPM_P2
2022/01/15 00:02:07;;;;;;;43.45;21.15;;;;;;;1.62;100.00;100462.31;5004102;28;20391;-84
2022/01/15 00:04:33;;;;;;;36.00;19.80;;;;;;;1.58;100.00;100447.13;4984183;28;20030;-84
2022/01/15 00:06:59;;;;;;;36.08;18.95;;;;;;;1.59;100.00;100444.41;5007504;28;20029;-84
2022/01/15 00:09:25;;;;;;;37.45;19.05;;;;;;;1.60;100.00;100448.66;5001968;28;20030;-85
2022/01/15 00:11:52;;;;;;;40.63;21.15;;;;;;;1.56;100.00;100445.44;4983561;28;20029;-84
2022/01/15 00:14:26;;;;;;;37.97;18.70;;;;;;;1.59;100.00;100439.22;4997134;28;20108;-84
2022/01/15 00:17:14;;;;;;;39.80;19.33;;;;;;;1.55;100.00;100428.25;4983533;28;20034;-84
2022/01/15 00:22:06;;;;;;;36.50;19.30;;;;;;;1.48;100.00;100432.16;5001379;28;20314;-83
2022/01/15 00:24:32;;;;;;;30.55;16.40;;;;;;;1.59;100.00;100430.66;5001428;28;20030;-83
2022/01/15 00:26:58;;;;;;;31.05;16.55;;;;;;;1.61;100.00;100431.38;4987449;28;20026;-84
2022/01/15 00:29:23;;;;;;;29.48;17.17;;;;;;;1.58;100.00;100431.59;4995096;28;20037;-82
2022/01/15 00:31:49;;;;;;;29.65;16.38;;;;;;;1.62;100.00;100420.09;5003524;28;20061;-84
2022/01/15 00:34:15;;;;;;;35.42;17.67;;;;;;;1.65;100.00;100419.88;4985339;28;20038;-83
2022/01/15 00:36:41;;;;;;;32.08;17.48;;;;;;;1.69;100.00;100411.81;5001925;28;20033;-83
2022/01/15 00:39:06;;;;;;;34.90;17.63;;;;;;;1.69;100.00;100409.22;5002434;28;20034;-84
2022/01/15 00:41:32;;;;;;;32.15;16.20;;;;;;;1.71;100.00;100407.38;4988307;28;20037;-83
2022/01/15 00:43:58;;;;;;;29.98;16.77;;;;;;;1.67;100.00;100392.97;4985659;28;20080;-84
2022/01/15 00:46:23;;;;;;;34.00;17.50;;;;;;;1.73;100.00;100399.47;4987387;28;20073;-85
2022/01/15 00:48:50;;;;;;;33.63;16.92;;;;;;;1.77;100.00;100398.34;4988946;28;20095;-84
2022/01/15 00:51:15;;;;;;;30.85;16.35;;;;;;;1.75;100.00;100402.78;4986300;28;20026;-84
2022/01/15 00:53:41;;;;;;;30.80;16.45;;;;;;;1.68;100.00;100397.22;5002623;28;20033;-85
2022/01/15 00:56:06;;;;;;;28.92;16.05;;;;;;;1.66;100.00;100387.88;4970433;28;20396;-84
2022/01/15 00:58:32;;;;;;;30.90;16.70;;;;;;;1.63;100.00;100369.97;4983633;28;20508;-83
2022/01/15 01:00:58;;;;;;;33.05;16.38;;;;;;;1.64;100.00;100375.03;5002522;28;20033;-84
2022/01/15 01:03:23;;;;;;;32.95;16.45;;;;;;;1.68;100.00;100373.91;5003236;28;20064;-84
2022/01/15 01:05:49;;;;;;;29.70;15.65;;;;;;;1.69;100.00;100382.50;4982425;28;20392;-84
2022/01/15 01:08:14;;;;;;;34.42;16.35;;;;;;;1.61;100.00;100372.66;4989946;28;20783;-84
2022/01/15 01:10:56;;;;;;;31.55;16.55;;;;;;;1.54;100.00;100374.81;5000632;28;20408;-84
2022/01/15 01:24:10;;;;;;;51.00;25.45;;;;;;;1.31;100.00;100349.66;5002274;28;20456;-84
2022/01/15 01:26:58;;;;;;;43.63;24.15;;;;;;;1.34;100.00;100354.63;4981856;28;20057;-84
2022/01/15 01:34:29;;;;;;;42.70;22.58;;;;;;;1.23;100.00;100335.50;5005293;28;20431;-83
2022/01/15 01:39:46;;;;;;;37.85;19.27;;;;;;;1.35;100.00;100328.66;4987455;28;20122;-84
2022/01/15 01:45:13;;;;;;;34.05;19.17;;;;;;;1.47;100.00;100331.34;4992137;28;20480;-83
2022/01/15 01:47:43;;;;;;;24.45;12.57;;;;;;;1.63;100.00;100325.97;4987256;28;20056;-83
2022/01/15 01:50:20;;;;;;;19.52;9.95;;;;;;;1.73;100.00;100321.81;5002384;28;20034;-83
2022/01/15 01:52:52;;;;;;;22.27;10.25;;;;;;;1.87;100.00;100315.72;4998487;28;20113;-83
2022/01/15 01:55:22;;;;;;;17.85;9.57;;;;;;;1.96;100.00;100311.63;5005993;28;20092;-84
2022/01/15 01:57:53;;;;;;;18.83;9.45;;;;;;;2.02;100.00;100306.03;4997470;28;20034;-84
2022/01/15 02:00:21;;;;;;;16.48;7.75;;;;;;;2.04;100.00;100298.13;4999535;28;20095;-83
2022/01/15 02:02:49;;;;;;;17.08;7.90;;;;;;;2.02;100.00;100303.44;4997839;28;20053;-84
2022/01/15 02:05:15;;;;;;;16.08;8.70;;;;;;;1.89;100.00;100297.47;5000645;28;20503;-83
2022/01/15 02:07:43;;;;;;;14.85;6.72;;;;;;;1.90;100.00;100305.13;5000830;28;20439;-82
2022/01/15 02:10:13;;;;;;;15.00;7.25;;;;;;;1.99;100.00;100295.91;5003292;28;20038;-83
2022/01/15 02:12:39;;;;;;;17.05;6.70;;;;;;;2.07;100.00;100293.59;5003701;28;20030;-83
2022/01/15 02:15:15;;;;;;;12.02;6.75;;;;;;;2.05;100.00;100290.28;5003648;28;20033;-83
2022/01/15 02:17:43;;;;;;;16.25;7.00;;;;;;;2.00;100.00;100287.19;4981622;28;20026;-83
2022/01/15 02:25:47;;;;;;;11.80;6.78;;;;;;;1.88;100.00;100267.31;5007621;28;20108;-83
2022/01/15 02:28:13;;;;;;;10.88;6.00;;;;;;;1.90;100.00;100262.84;5003432;28;20037;-83
2022/01/15 02:30:39;;;;;;;14.90;6.70;;;;;;;1.98;100.00;100263.16;4987315;28;20044;-83
2022/01/15 02:33:06;;;;;;;12.27;6.22;;;;;;;1.97;100.00;100259.72;5001493;28;20526;-83
2022/01/15 02:35:32;;;;;;;11.13;6.10;;;;;;;1.98;100.00;100260.56;5006616;28;21851;-83
2022/01/15 02:38:08;;;;;;;12.95;7.05;;;;;;;2.04;100.00;100257.53;5006405;28;20084;-86
2022/01/15 02:40:35;;;;;;;11.32;6.43;;;;;;;1.98;100.00;100258.00;5006448;28;20037;-85
2022/01/15 02:43:17;;;;;;;13.25;6.32;;;;;;;1.90;100.00;100242.16;5004613;28;20510;-84
2022/01/15 02:45:46;;;;;;;12.05;5.75;;;;;;;1.90;100.00;100245.56;5006546;28;20471;-84
2022/01/15 02:48:16;;;;;;;11.90;5.70;;;;;;;1.93;100.00;100244.50;5005852;28;20034;-84
2022/01/15 02:50:43;;;;;;;10.35;5.05;;;;;;;1.96;100.00;100244.28;5001953;28;20049;-82
2022/01/15 02:53:11;;;;;;;9.13;4.95;;;;;;;1.92;100.00;100241.13;5005203;28;20121;-83
2022/01/15 02:55:44;;;;;;;14.93;5.63;;;;;;;1.90;100.00;100243.00;5005241;28;20423;-84
2022/01/15 02:58:10;;;;;;;11.55;4.95;;;;;;;1.92;100.00;100237.69;4986442;28;20025;-84
2022/01/15 03:00:36;;;;;;;11.52;4.50;;;;;;;1.90;100.00;100234.38;5001579;28;20033;-83
2022/01/15 03:03:02;;;;;;;11.80;5.40;;;;;;;1.88;100.00;100236.25;4988262;28;20476;-83
2022/01/15 03:05:27;;;;;;;9.63;4.10;;;;;;;1.84;100.00;100226.13;5006464;28;20041;-84
2022/01/15 03:07:53;;;;;;;11.00;5.45;;;;;;;2.02;100.00;100233.53;5007656;28;20412;-83
2022/01/15 03:10:20;;;;;;;10.25;5.22;;;;;;;2.14;100.00;100224.03;5004913;28;20116;-84
2022/01/15 03:12:46;;;;;;;10.98;4.68;;;;;;;2.27;100.00;100224.81;5005370;28;20095;-83
2022/01/15 03:15:19;;;;;;;8.98;4.50;;;;;;;2.39;100.00;100215.31;5001605;28;20357;-83
2022/01/15 03:17:45;;;;;;;9.82;4.72;;;;;;;2.53;100.00;100214.31;5005610;28;20080;-85
2022/01/15 03:20:13;;;;;;;6.15;3.67;;;;;;;2.57;100.00;100222.69;4996187;28;20091;-85
2022/01/15 03:22:39;;;;;;;6.90;3.85;;;;;;;2.52;100.00;100210.06;4990193;28;20031;-84
2022/01/15 03:25:05;;;;;;;6.55;3.70;;;;;;;2.48;100.00;100212.97;5003286;28;20022;-85
2022/01/15 03:27:31;;;;;;;8.57;4.05;;;;;;;2.55;100.00;100209.81;5004797;28;20033;-84
2022/01/15 03:29:57;;;;;;;5.75;3.13;;;;;;;2.75;100.00;100204.09;5003665;28;20037;-84
2022/01/15 03:32:23;;;;;;;5.70;2.92;;;;;;;2.80;100.00;100202.81;4971383;28;20041;-84
2022/01/15 03:34:49;;;;;;;5.47;3.50;;;;;;;2.87;100.00;100202.38;5006062;28;20397;-84
2022/01/15 03:37:16;;;;;;;7.25;2.90;;;;;;;2.84;100.00;100193.03;5009462;28;20040;-85
2022/01/15 03:39:43;;;;;;;5.47;3.00;;;;;;;2.83;100.00;100191.38;5004801;28;20390;-84
2022/01/15 03:42:12;;;;;;;5.10;3.05;;;;;;;2.80;100.00;100194.22;4988072;28;21735;-84
2022/01/15 03:44:44;;;;;;;7.63;3.50;;;;;;;2.63;100.00;100179.91;4986427;28;20138;-85
2022/01/15 03:47:11;;;;;;;5.38;3.17;;;;;;;2.47;100.00;100186.25;5000264;28;20044;-85
2022/01/15 03:49:39;;;;;;;7.10;3.20;;;;;;;2.33;100.00;100174.28;4990005;28;20034;-86
2022/01/15 03:52:06;;;;;;;5.22;3.55;;;;;;;2.22;100.00;100171.69;5006109;28;20041;-86
2022/01/15 03:54:32;;;;;;;6.07;3.17;;;;;;;2.19;100.00;100172.72;5008535;28;20464;-86
2022/01/15 03:56:58;;;;;;;7.15;4.70;;;;;;;2.16;100.00;100174.69;5005331;28;20030;-85
2022/01/15 03:59:23;;;;;;;26.38;12.20;;;;;;;2.02;100.00;100173.94;5006603;28;20025;-86
2022/01/15 04:01:49;;;;;;;25.23;12.10;;;;;;;1.92;100.00;100175.53;5004446;28;20030;-85
2022/01/15 04:04:16;;;;;;;24.50;12.60;;;;;;;1.79;100.00;100176.44;5005504;28;20121;-86
2022/01/15 04:06:42;;;;;;;24.35;12.25;;;;;;;1.68;100.00;100164.25;5003829;28;20030;-85
2022/01/15 04:09:07;;;;;;;22.50;13.48;;;;;;;1.62;100.00;100163.88;5003460;28;20101;-85
2022/01/15 04:11:34;;;;;;;22.95;13.32;;;;;;;1.55;100.00;100172.03;5004728;28;20038;-85
2022/01/15 04:14:03;;;;;;;21.00;11.88;;;;;;;1.52;100.00;100163.69;4991357;28;20108;-85
2022/01/15 04:16:29;;;;;;;22.95;13.02;;;;;;;1.46;100.00;100164.94;4985773;28;20105;-86
2022/01/15 04:18:56;;;;;;;24.17;12.82;;;;;;;1.43;100.00;100154.81;5006872;28;20026;-86
2022/01/15 04:21:22;;;;;;;21.05;11.90;;;;;;;1.41;100.00;100148.91;5001859;28;20472;-83
2022/01/15 04:23:47;;;;;;;21.35;11.68;;;;;;;1.42;100.00;100142.81;5004353;28;20080;-84
2022/01/15 04:26:13;;;;;;;24.15;13.13;;;;;;;1.45;100.00;100137.41;5007743;28;20061;-84
2022/01/15 04:28:39;;;;;;;27.48;12.70;;;;;;;1.38;100.00;100139.59;5000090;28;20108;-84
2022/01/15 04:31:06;;;;;;;25.75;13.02;;;;;;;1.39;100.00;100128.31;5006855;28;20029;-83
2022/01/15 04:33:37;;;;;;;26.83;12.80;;;;;;;1.43;100.00;100126.34;4999975;28;20042;-84
2022/01/15 04:36:05;;;;;;;22.48;12.27;;;;;;;1.38;100.00;100115.50;5002188;28;20049;-84
2022/01/15 04:38:34;;;;;;;26.77;12.40;;;;;;;1.36;100.00;100115.59;5005452;28;20046;-84
2022/01/15 04:41:00;;;;;;;24.65;11.82;;;;;;;1.35;100.00;100113.94;5001548;28;20037;-84
2022/01/15 04:43:26;;;;;;;19.85;11.70;;;;;;;1.31;100.00;100106.50;5008000;28;20031;-83
2022/01/15 04:45:52;;;;;;;18.75;10.43;;;;;;;1.32;100.00;100100.38;4971895;28;20030;-84
2022/01/15 04:48:17;;;;;;;17.73;9.40;;;;;;;1.31;100.00;100088.38;5005679;28;20080;-84
2022/01/15 04:50:43;;;;;;;15.23;8.35;;;;;;;1.35;100.00;100092.41;5004896;28;20034;-83
2022/01/15 04:53:09;;;;;;;11.82;6.80;;;;;;;1.36;100.00;100086.31;4996676;28;20026;-84
2022/01/15 04:55:36;;;;;;;12.50;7.57;;;;;;;1.39;100.00;100092.09;4986689;28;20552;-85
2022/01/15 04:58:02;;;;;;;14.45;8.95;;;;;;;1.45;100.00;100098.59;4989790;28;20026;-86
2022/01/15 05:00:28;;;;;;;18.45;8.10;;;;;;;1.45;100.00;100090.00;5002556;28;20128;-86
2022/01/15 05:02:54;;;;;;;16.13;8.95;;;;;;;1.42;100.00;100091.88;5005204;28;20037;-85
2022/01/15 05:05:19;;;;;;;17.52;9.88;;;;;;;1.37;100.00;100085.38;5004263;28;20033;-85
2022/01/15 05:07:45;;;;;;;20.75;9.95;;;;;;;1.41;100.00;100086.81;5002086;28;20030;-84
2022/01/15 05:10:13;;;;;;;17.90;9.13;;;;;;;1.45;100.00;100079.66;4986346;28;20033;-86
2022/01/15 05:12:44;;;;;;;16.67;9.10;;;;;;;1.45;100.00;100079.66;5005417;28;20026;-83
2022/01/15 05:15:12;;;;;;;16.60;9.13;;;;;;;1.40;100.00;100080.00;4963760;28;20041;-84
2022/01/15 05:17:38;;;;;;;15.40;8.90;;;;;;;1.39;100.00;100080.94;4984935;28;20037;-84
2022/01/15 05:20:04;;;;;;;18.95;9.93;;;;;;;1.34;100.00;100068.31;5003964;28;20030;-84
2022/01/15 05:22:31;;;;;;;15.98;9.05;;;;;;;1.36;100.00;100061.28;4986548;28;20045;-83
2022/01/15 05:24:57;;;;;;;17.42;8.77;;;;;;;1.40;100.00;100065.28;4999881;28;20068;-84
2022/01/15 05:27:23;;;;;;;17.08;8.93;;;;;;;1.37;100.00;100056.91;4987772;28;20072;-84
2022/01/15 05:29:48;;;;;;;12.13;7.82;;;;;;;1.40;100.00;100069.66;4985681;28;20042;-84
2022/01/15 05:32:14;;;;;;;15.93;8.38;;;;;;;1.39;100.00;100060.22;4989779;28;20144;-84
2022/01/15 05:34:40;;;;;;;14.63;8.10;;;;;;;1.39;100.00;100073.16;4988115;28;20380;-85
2022/01/15 05:37:05;;;;;;;14.15;7.90;;;;;;;1.27;100.00;100064.50;5002599;28;20386;-83
2022/01/15 05:39:31;;;;;;;11.90;7.13;;;;;;;1.25;100.00;100067.22;5000794;28;20057;-84
2022/01/15 05:41:57;;;;;;;14.80;7.00;;;;;;;1.11;100.00;100068.19;5001882;28;20094;-83
2022/01/15 05:44:23;;;;;;;15.38;7.50;;;;;;;1.02;100.00;100065.41;4984989;28;20471;-84
2022/01/15 05:46:48;;;;;;;12.32;6.78;;;;;;;0.95;100.00;100067.59;5006037;28;20029;-82
2022/01/15 05:49:14;;;;;;;16.10;8.35;;;;;;;0.89;100.00;100058.50;4984404;28;20113;-83
2022/01/15 05:51:40;;;;;;;16.48;8.25;;;;;;;0.89;100.00;100062.88;4982597;28;20125;-83
2022/01/15 05:54:10;;;;;;;15.30;8.50;;;;;;;0.80;100.00;100052.22;4985912;28;20030;-84
2022/01/15 05:56:39;;;;;;;15.40;10.15;;;;;;;0.82;100.00;100059.88;4997161;28;20033;-86
2022/01/15 05:59:06;;;;;;;18.17;9.02;;;;;;;0.79;100.00;100062.69;5008265;28;20030;-84
2022/01/15 06:01:32;;;;;;;17.48;8.88;;;;;;;0.71;100.00;100048.50;5010469;28;20038;-84
2022/01/15 06:03:58;;;;;;;16.10;8.98;;;;;;;0.68;100.00;100053.88;5003104;28;20103;-84
2022/01/15 06:06:23;;;;;;;11.63;7.68;;;;;;;0.69;100.00;100047.78;5006846;28;20053;-85
2022/01/15 06:08:49;;;;;;;12.25;6.75;;;;;;;0.79;100.00;100054.91;5005808;28;20454;-86
2022/01/15 06:11:18;;;;;;;10.20;6.55;;;;;;;0.81;100.00;100055.63;4998611;28;20448;-82
2022/01/15 06:13:47;;;;;;;9.20;5.57;;;;;;;0.82;100.00;100059.88;5007274;28;20030;-83
2022/01/15 06:16:14;;;;;;;9.70;5.45;;;;;;;0.77;100.00;100064.50;5005289;28;20030;-84
2022/01/15 06:18:40;;;;;;;12.10;5.78;;;;;;;0.75;100.00;100061.22;4988563;28;20057;-83
2022/01/15 06:21:07;;;;;;;12.02;6.35;;;;;;;0.71;100.00;100061.44;4999106;28;20436;-83
2022/01/15 06:23:32;;;;;;;12.98;6.70;;;;;;;0.67;100.00;100060.00;5002890;28;20023;-85
2022/01/15 06:25:58;;;;;;;14.75;7.90;;;;;;;0.48;100.00;100059.59;5004780;28;20120;-85
2022/01/15 06:28:23;;;;;;;16.00;8.43;;;;;;;0.27;100.00;100057.53;5007447;28;20073;-84
2022/01/15 06:30:49;;;;;;;15.90;9.68;;;;;;;0.31;100.00;100051.22;4987430;28;20037;-85
2022/01/15 06:33:14;;;;;;;13.90;8.38;;;;;;;0.51;100.00;100054.22;5007548;28;20077;-85
2022/01/15 06:35:41;;;;;;;17.30;9.45;;;;;;;0.59;100.00;100056.28;5006192;28;20396;-85
2022/01/15 06:38:07;;;;;;;19.42;9.77;;;;;;;0.57;100.00;100052.03;5003662;28;20083;-85
2022/01/15 06:40:32;;;;;;;17.38;9.32;;;;;;;0.60;100.00;100050.19;4990782;28;20106;-83
2022/01/15 06:43:00;;;;;;;21.55;11.70;;;;;;;0.63;100.00;100043.03;5003532;28;20034;-83
2022/01/15 06:45:27;;;;;;;26.05;12.73;;;;;;;0.59;100.00;100041.63;5000197;28;20498;-84
2022/01/15 06:47:53;;;;;;;24.67;14.38;;;;;;;0.58;100.00;100050.25;5004484;28;20049;-84
2022/01/15 06:50:20;;;;;;;29.00;14.77;;;;;;;0.51;100.00;100042.13;4996568;28;20038;-84
2022/01/15 06:52:46;;;;;;;29.77;14.52;;;;;;;0.50;100.00;100037.06;4969224;28;20116;-83
2022/01/15 06:55:11;;;;;;;24.83;12.23;;;;;;;0.55;100.00;100040.16;4990377;28;20105;-83
2022/01/15 06:57:37;;;;;;;16.67;9.23;;;;;;;0.49;100.00;100043.16;5003520;28;20129;-83
2022/01/15 07:00:06;;;;;;;18.05;9.98;;;;;;;0.56;100.00;100041.78;4988882;28;20042;-83
2022/01/15 07:02:32;;;;;;;18.15;10.30;;;;;;;0.51;100.00;100028.38;5002681;28;20121;-84
2022/01/15 07:04:57;;;;;;;17.67;10.55;;;;;;;0.67;100.00;100034.16;5000983;28;20124;-83
2022/01/15 07:07:23;;;;;;;19.08;8.57;;;;;;;0.69;100.00;100036.63;4986937;28;20534;-83
2022/01/15 07:09:49;;;;;;;16.52;9.30;;;;;;;0.79;100.00;100036.81;5003807;28;20046;-84
2022/01/15 07:12:14;;;;;;;18.98;9.50;;;;;;;0.82;100.00;100028.84;4984315;28;20113;-84
2022/01/15 07:14:40;;;;;;;22.42;11.10;;;;;;;0.86;100.00;100035.47;5008246;28;20034;-85
2022/01/15 07:17:05;;;;;;;21.40;11.20;;;;;;;0.88;100.00;100023.25;5009249;28;20488;-84
2022/01/15 07:19:31;;;;;;;19.48;10.35;;;;;;;0.93;100.00;100028.09;5010100;28;20064;-84
2022/01/15 07:21:58;;;;;;;17.98;9.85;;;;;;;0.91;100.00;100024.81;5008572;28;20034;-83
2022/01/15 07:24:24;;;;;;;15.88;9.70;;;;;;;0.77;100.00;100025.75;4989148;28;20117;-86
2022/01/15 07:26:49;;;;;;;15.38;9.23;;;;;;;0.70;100.00;100026.19;5008513;28;20042;-83
2022/01/15 07:29:16;;;;;;;17.02;9.35;;;;;;;0.64;100.00;100016.28;4972401;28;20415;-83
2022/01/15 07:31:46;;;;;;;16.55;9.73;;;;;;;0.60;100.00;100022.59;5006010;28;20034;-83
2022/01/15 07:34:15;;;;;;;25.15;11.90;;;;;;;0.56;100.00;100023.72;4988104;28;20129;-84
2022/01/15 07:36:41;;;;;;;21.15;10.45;;;;;;;0.57;100.00;100025.38;4965468;28;20033;-83
2022/01/15 07:39:08;;;;;;;19.98;9.63;;;;;;;0.54;100.00;100023.00;4988292;28;20034;-85
2022/01/15 07:41:35;;;;;;;14.15;8.88;;;;;;;0.48;100.00;100007.94;4985001;28;20033;-84
2022/01/15 07:44:01;;;;;;;17.73;11.05;;;;;;;0.47;100.00;100014.84;4989889;28;20025;-85
2022/01/15 07:46:26;;;;;;;23.88;11.30;;;;;;;0.45;100.00;100010.72;4984280;28;20027;-87
2022/01/15 07:48:54;;;;;;;20.50;11.05;;;;;;;0.39;100.00;99999.03;4991280;28;21006;-85
2022/01/15 07:51:22;;;;;;;18.80;10.35;;;;;;;0.44;100.00;100015.03;4985478;28;20126;-86
2022/01/15 07:53:48;;;;;;;15.48;9.45;;;;;;;0.44;100.00;100002.13;4981914;28;20046;-85
2022/01/15 07:56:13;;;;;;;19.92;11.27;;;;;;;0.44;100.00;100003.91;4980340;28;20492;-86
2022/01/15 07:58:39;;;;;;;24.05;12.48;;;;;;;0.44;100.00;100001.31;4986396;28;20038;-86
2022/01/15 08:01:05;;;;;;;16.30;9.57;;;;;;;0.41;100.00;100003.19;4968098;28;20031;-85
2022/01/15 08:03:33;;;;;;;15.82;9.27;;;;;;;0.47;100.00;100001.09;4979156;28;20033;-83
2022/01/15 08:05:58;;;;;;;17.83;9.77;;;;;;;0.47;100.00;100014.03;4981242;28;20121;-84
2022/01/15 08:08:24;;;;;;;18.80;10.75;;;;;;;0.47;100.00;100021.78;4987679;28;20476;-83
2022/01/15 08:10:49;;;;;;;22.42;12.52;;;;;;;0.54;100.00;100034.16;4984955;28;20113;-84
2022/01/15 08:13:16;;;;;;;26.00;13.13;;;;;;;0.57;100.00;100035.69;4983385;28;20493;-84
2022/01/15 08:15:42;;;;;;;22.30;12.75;;;;;;;0.60;100.00;100032.94;4981312;28;20043;-86
2022/01/15 08:18:08;;;;;;;15.70;8.40;;;;;;;0.56;100.00;100028.88;4985321;28;20053;-86
2022/01/15 08:20:34;;;;;;;19.50;10.00;;;;;;;0.60;100.00;100019.16;4979005;28;20105;-83
2022/01/15 08:22:59;;;;;;;18.42;9.05;;;;;;;0.65;100.00;100007.59;4976638;28;20500;-83
2022/01/15 08:25:25;;;;;;;16.92;9.50;;;;;;;0.70;100.00;100010.69;5001448;28;20030;-83
2022/01/15 08:27:52;;;;;;;23.48;12.40;;;;;;;0.79;100.00;100005.81;4983983;28;20499;-83
2022/01/15 08:30:18;;;;;;;26.15;13.18;;;;;;;0.88;100.00;100012.91;4969155;28;20069;-84
2022/01/15 08:32:44;;;;;;;34.53;18.98;;;;;;;0.93;100.00;100012.59;4984118;28;20038;-84
2022/01/15 08:35:11;;;;;;;52.30;26.25;;;;;;;0.97;100.00;100012.25;4999380;28;20126;-84
2022/01/15 08:37:40;;;;;;;37.88;19.05;;;;;;;0.95;100.00;100001.19;4978444;28;20033;-84
2022/01/15 08:40:07;;;;;;;31.67;15.90;;;;;;;1.01;100.00;99999.13;5002493;28;20408;-84
2022/01/15 08:42:35;;;;;;;29.48;16.75;;;;;;;1.01;100.00;99997.34;5003232;28;20089;-84
2022/01/15 08:45:01;;;;;;;37.88;18.80;;;;;;;1.04;100.00;99997.13;4998985;28;20030;-84
2022/01/15 08:47:27;;;;;;;41.17;21.38;;;;;;;1.12;100.00;99991.41;5000608;28;20034;-80
2022/01/15 08:49:55;;;;;;;37.70;20.17;;;;;;;1.13;100.00;99987.91;4987311;28;20037;-84
2022/01/15 08:52:21;;;;;;;37.60;19.98;;;;;;;1.16;100.00;99998.00;4986556;28;20034;-84
2022/01/15 08:54:47;;;;;;;34.38;15.93;;;;;;;1.14;100.00;99989.53;5000234;28;20100;-83
2022/01/15 08:57:12;;;;;;;30.17;15.13;;;;;;;1.17;100.00;99988.50;4981258;28;20062;-84
2022/01/15 08:59:39;;;;;;;29.80;15.27;;;;;;;1.14;100.00;99992.13;4983939;28;20053;-83
2022/01/15 09:02:05;;;;;;;28.20;15.45;;;;;;;1.09;100.00;99968.38;4985175;28;20120;-82
2022/01/15 09:04:31;;;;;;;30.33;16.50;;;;;;;1.12;100.00;99968.16;4970772;28;20049;-84
2022/01/15 09:06:57;;;;;;;32.35;16.83;;;;;;;1.27;100.00;99979.97;4989665;28;20357;-83
2022/01/15 09:09:23;;;;;;;35.25;19.25;;;;;;;1.27;100.00;99969.63;5002883;28;20049;-83
2022/01/15 09:11:49;;;;;;;28.33;16.52;;;;;;;1.33;100.00;99963.19;4982612;28;20495;-84
2022/01/15 09:14:14;;;;;;;30.30;16.98;;;;;;;1.31;100.00;99965.06;4998118;28;20022;-83
2022/01/15 09:16:41;;;;;;;34.00;16.85;;;;;;;1.36;100.00;99967.31;4984296;28;20395;-84
2022/01/15 09:19:09;;;;;;;30.77;16.63;;;;;;;1.37;100.00;99966.34;5009028;28;20041;-84
2022/01/15 09:21:35;;;;;;;33.10;17.95;;;;;;;1.37;100.00;99963.78;5002502;28;20030;-84
2022/01/15 09:24:01;;;;;;;38.58;19.67;;;;;;;1.39;100.00;99961.94;5004134;28;20030;-84
2022/01/15 09:26:48;;;;;;;32.58;17.60;;;;;;;1.38;100.00;99949.94;4995702;28;20032;-84
2022/01/15 09:32:00;;;;;;;36.35;18.60;;;;;;;1.50;100.00;99956.78;5006153;28;20044;-83
2022/01/15 09:34:27;;;;;;;39.97;22.30;;;;;;;1.52;100.00;99949.72;4971990;28;20046;-86
2022/01/15 09:36:53;;;;;;;39.72;21.70;;;;;;;1.68;100.00;99958.94;4997288;28;20115;-83
2022/01/15 09:39:20;;;;;;;46.88;25.75;;;;;;;1.73;100.00;99958.59;5000863;28;20033;-83
2022/01/15 09:41:49;;;;;;;48.60;27.00;;;;;;;1.74;100.00;99950.72;4985797;28;20479;-84
2022/01/15 09:44:16;;;;;;;49.20;25.67;;;;;;;1.85;100.00;99953.34;5007600;28;20030;-83
2022/01/15 09:46:42;;;;;;;47.50;26.92;;;;;;;1.90;100.00;99949.56;4986213;28;20476;-82
2022/01/15 09:49:09;;;;;;;48.72;25.92;;;;;;;1.99;100.00;99944.50;4999710;28;20036;-82
2022/01/15 09:51:36;;;;;;;52.60;27.05;;;;;;;2.06;100.00;99944.88;5002547;28;20030;-83
2022/01/15 09:54:05;;;;;;;55.75;30.38;;;;;;;2.18;100.00;99937.94;4993966;28;20030;-84
2022/01/15 09:56:31;;;;;;;51.40;27.67;;;;;;;2.34;100.00;99944.53;4991534;28;20472;-83
2022/01/15 09:58:58;;;;;;;60.92;33.35;;;;;;;2.36;100.00;99921.91;5003580;28;20030;-85
2022/01/15 10:01:26;;;;;;;56.45;30.30;;;;;;;2.38;100.00;99922.63;5004613;28;20395;-84
2022/01/15 10:03:52;;;;;;;47.00;26.83;;;;;;;2.41;100.00;99927.56;5004190;28;20034;-83
2022/01/15 10:06:20;;;;;;;43.33;26.13;;;;;;;2.34;100.00;99922.03;4986696;28;20045;-84
2022/01/15 10:09:12;;;;;;;53.40;31.98;;;;;;;2.27;100.00;99926.03;4983490;28;20164;-83
2022/01/15 10:11:41;;;;;;;57.42;32.25;;;;;;;2.17;100.00;99925.13;4996851;28;20030;-82
2022/01/15 10:14:33;;;;;;;60.13;31.00;;;;;;;2.20;100.00;99930.88;5002196;28;20114;-83
2022/01/15 10:17:01;;;;;;;56.53;32.58;;;;;;;2.16;100.00;99924.28;4986443;28;20036;-86
2022/01/15 10:19:36;;;;;;;59.35;31.70;;;;;;;2.16;100.00;99933.81;5002012;28;20030;-83
2022/01/15 10:22:19;;;;;;;55.78;31.67;;;;;;;2.21;100.00;99931.69;4997854;28;20103;-86
2022/01/15 10:24:56;;;;;;;63.70;34.33;;;;;;;2.19;100.00;99933.59;4977756;28;20030;-86
2022/01/15 10:27:43;;;;;;;59.97;32.78;;;;;;;2.21;100.00;99924.75;4968351;28;20044;-84
2022/01/15 10:30:10;;;;;;;62.35;33.92;;;;;;;2.18;100.00;99924.19;4966403;28;20438;-82
2022/01/15 10:32:52;;;;;;;63.80;33.80;;;;;;;2.22;100.00;99930.75;4982570;28;20026;-83
2022/01/15 10:35:18;;;;;;;62.35;33.90;;;;;;;2.22;100.00;99930.75;4997110;28;20044;-84
2022/01/15 10:37:55;;;;;;;65.80;35.33;;;;;;;2.25;100.00;99926.16;4980716;28;20121;-83
2022/01/15 10:40:25;;;;;;;67.05;34.75;;;;;;;2.28;100.00;99927.69;4997639;28;20069;-83
2022/01/15 10:42:55;;;;;;;60.17;33.67;;;;;;;2.31;100.00;99917.09;4985536;28;20090;-84
2022/01/15 10:45:21;;;;;;;62.13;34.47;;;;;;;2.30;100.00;99915.44;5004497;28;20385;-83
2022/01/15 10:47:50;;;;;;;60.65;32.83;;;;;;;2.30;100.00;99920.63;4982272;28;20058;-82
2022/01/15 10:50:20;;;;;;;60.65;33.88;;;;;;;2.30;100.00;99915.44;4988290;28;20132;-83
2022/01/15 10:53:04;;;;;;;63.03;34.22;;;;;;;2.31;100.00;99911.91;5000887;28;20092;-84
2022/01/15 10:55:32;;;;;;;59.80;33.45;;;;;;;2.40;100.00;99913.78;5001366;28;20484;-84
2022/01/15 10:58:11;;;;;;;54.83;30.33;;;;;;;2.41;100.00;99912.84;4999830;28;20045;-85
2022/01/15 11:00:37;;;;;;;57.20;33.78;;;;;;;2.57;100.00;99911.66;4986058;28;20069;-84
2022/01/15 11:03:18;;;;;;;63.80;34.55;;;;;;;3.00;100.00;99908.22;4968581;28;20042;-84
2022/01/15 11:05:49;;;;;;;54.25;32.67;;;;;;;3.52;100.00;99902.28;4977308;28;20064;-80
2022/01/15 11:08:20;;;;;;;54.85;32.60;;;;;;;3.99;100.00;99904.44;5005150;28;20042;-83
2022/01/15 11:10:54;;;;;;;48.15;30.85;;;;;;;4.31;100.00;99902.66;4986164;28;20046;-80
2022/01/15 11:13:29;;;;;;;60.00;32.80;;;;;;;4.48;100.00;99892.56;5002600;28;20026;-82
2022/01/15 11:16:00;;;;;;;67.30;35.95;;;;;;;4.63;100.00;99891.22;5006828;28;20033;-82
2022/01/15 11:18:33;;;;;;;65.65;35.97;;;;;;;4.78;100.00;99880.44;4988539;28;20085;-80
2022/01/15 11:21:03;;;;;;;60.60;37.40;;;;;;;4.84;100.00;99882.50;4978028;28;20053;-81
2022/01/15 11:23:30;;;;;;;64.18;36.38;;;;;;;4.76;100.00;99890.16;5004471;28;20371;-81
2022/01/15 11:26:00;;;;;;;63.90;36.53;;;;;;;4.46;100.00;99884.09;5002226;28;20026;-81
2022/01/15 11:28:29;;;;;;;56.42;32.65;;;;;;;4.22;100.00;99872.25;5002454;28;20113;-82
2022/01/15 11:30:59;;;;;;;58.10;33.80;;;;;;;4.16;100.00;99863.22;4977505;28;20057;-83
2022/01/15 11:33:39;;;;;;;58.40;33.42;;;;;;;4.37;100.00;99863.16;5001617;28;20054;-84
2022/01/15 11:36:07;;;;;;;60.35;34.00;;;;;;;4.61;100.00;99861.94;5004389;28;20173;-84
2022/01/15 11:38:57;;;;;;;67.82;38.35;;;;;;;4.87;100.00;99843.19;5004566;28;20045;-83
2022/01/15 11:41:22;;;;;;;67.72;41.35;;;;;;;5.07;100.00;99845.78;4992873;28;20494;-84
2022/01/15 11:43:49;;;;;;;60.13;38.40;;;;;;;5.17;100.00;99837.97;5004086;28;20026;-84
2022/01/15 11:46:30;;;;;;;62.75;37.67;;;;;;;5.33;100.00;99850.41;5002497;28;20030;-83
2022/01/15 11:49:24;;;;;;;72.97;40.45;;;;;;;5.41;100.00;99837.50;4984788;28;20033;-83
2022/01/15 11:51:54;;;;;;;64.95;40.25;;;;;;;5.52;100.00;99834.75;4995312;28;20081;-82